sensor_id;sensor_type;location;lat;lon;timestamp;temperature;humidity
18335;DHT22;9293;49.524;10.964;2023-12-14T00:00:33;6.80;99.90
18335;DHT22;9293;49.524;10.964;2023-12-14T00:03:01;6.70;99.90
18335;DHT22;9293;49.524;10.964;2023-12-14T00:05:29;6.70;99.90
18335;DHT22;9293;49.524;10.964;2023-12-14T00:07:58;6.70;99.90
18335;DHT22;9293;49.524;10.964;2023-12-14T00:10:26;6.70;99.90
18335;DHT22;9293;49.524;10.964;2023-12-14T00:12:54;6.70;99.90
18335;DHT22;9293;49.524;10.964;2023-12-14T00:15:23;6.70;99.90
18335;DHT22;9293;49.524;10.964;2023-12-14T00:17:51;6.60;99.90
18335;DHT22;9293;49.524;10.964;2023-12-14T00:20:19;6.60;99.90
18335;DHT22;9293;49.524;10.964;2023-12-14T00:22:48;6.60;99.90
18335;DHT22;9293;49.524;10.964;2023-12-14T00:25:16;6.60;99.90
18335;DHT22;9293;49.524;10.964;2023-12-14T00:27:45;6.60;99.90
18335;DHT22;9293;49.524;10.964;2023-12-14T00:30:13;6.60;99.90
18335;DHT22;9293;49.524;10.964;2023-12-14T00:32:41;6.60;99.90
18335;DHT22;9293;49.524;10.964;2023-12-14T00:35:10;6.60;99.90
18335;DHT22;9293;49.524;10.964;2023-12-14T00:37:38;6.50;99.90
18335;DHT22;9293;49.524;10.964;2023-12-14T00:40:07;6.50;99.90
18335;DHT22;9293;49.524;10.964;2023-12-14T00:42:35;6.50;99.90
18335;DHT22;9293;49.524;10.964;2023-12-14T00:45:04;6.50;99.90
18335;DHT22;9293;49.524;10.964;2023-12-14T00:47:32;6.50;99.90
18335;DHT22;9293;49.524;10.964;2023-12-14T00:50:01;6.50;99.90
18335;DHT22;9293;49.524;10.964;2023-12-14T00:52:29;6.40;99.90
18335;DHT22;9293;49.524;10.964;2023-12-14T00:54:58;6.30;99.90
18335;DHT22;9293;49.524;10.964;2023-12-14T00:57:26;6.20;99.90
18335;DHT22;9293;49.524;10.964;2023-12-14T00:59:54;6.20;99.90
18335;DHT22;9293;49.524;10.964;2023-12-14T01:02:23;6.20;99.90
18335;DHT22;9293;49.524;10.964;2023-12-14T01:04:51;6.10;99.90
18335;DHT22;9293;49.524;10.964;2023-12-14T01:07:19;6.10;99.90
18335;DHT22;9293;49.524;10.964;2023-12-14T01:09:47;6.00;99.90
18335;DHT22;9293;49.524;10.964;2023-12-14T01:12:15;6.00;99.90
18335;DHT22;9293;49.524;10.964;2023-12-14T01:14:44;5.90;99.90
18335;DHT22;9293;49.524;10.964;2023-12-14T01:17:12;5.90;99.90
18335;DHT22;9293;49.524;10.964;2023-12-14T01:19:40;5.90;99.90
18335;DHT22;9293;49.524;10.964;2023-12-14T01:22:09;5.90;99.90
18335;DHT22;9293;49.524;10.964;2023-12-14T01:24:37;5.90;99.90
18335;DHT22;9293;49.524;10.964;2023-12-14T01:27:05;5.90;99.90
18335;DHT22;9293;49.524;10.964;2023-12-14T01:29:34;5.90;99.90
18335;DHT22;9293;49.524;10.964;2023-12-14T01:32:02;5.90;99.90
18335;DHT22;9293;49.524;10.964;2023-12-14T01:34:31;6.00;99.90
18335;DHT22;9293;49.524;10.964;2023-12-14T01:36:59;6.00;99.90
18335;DHT22;9293;49.524;10.964;2023-12-14T01:39:27;6.00;99.90
18335;DHT22;9293;49.524;10.964;2023-12-14T01:41:56;6.00;99.90
18335;DHT22;9293;49.524;10.964;2023-12-14T01:44:24;6.00;99.90
18335;DHT22;9293;49.524;10.964;2023-12-14T01:46:52;6.00;99.90
18335;DHT22;9293;49.524;10.964;2023-12-14T01:49:20;6.00;99.90
18335;DHT22;9293;49.524;10.964;2023-12-14T01:51:49;6.00;99.90
18335;DHT22;9293;49.524;10.964;2023-12-14T01:54:17;6.00;99.90
18335;DHT22;9293;49.524;10.964;2023-12-14T01:56:45;6.10;99.90
18335;DHT22;9293;49.524;10.964;2023-12-14T01:59:14;6.10;99.90
18335;DHT22;9293;49.524;10.964;2023-12-14T02:01:47;6.10;99.90
18335;DHT22;9293;49.524;10.964;2023-12-14T02:04:20;6.10;99.90
18335;DHT22;9293;49.524;10.964;2023-12-14T02:06:49;6.10;99.90
18335;DHT22;9293;49.524;10.964;2023-12-14T02:09:17;6.00;99.90
18335;DHT22;9293;49.524;10.964;2023-12-14T02:11:45;6.00;99.90
18335;DHT22;9293;49.524;10.964;2023-12-14T02:14:14;5.90;99.90
18335;DHT22;9293;49.524;10.964;2023-12-14T02:16:42;5.90;99.90
18335;DHT22;9293;49.524;10.964;2023-12-14T02:19:10;6.00;99.90
18335;DHT22;9293;49.524;10.964;2023-12-14T02:21:39;6.00;99.90
18335;DHT22;9293;49.524;10.964;2023-12-14T02:24:07;6.00;99.90
18335;DHT22;9293;49.524;10.964;2023-12-14T02:26:35;6.00;99.90
18335;DHT22;9293;49.524;10.964;2023-12-14T02:29:03;6.00;99.90
18335;DHT22;9293;49.524;10.964;2023-12-14T02:31:32;5.90;99.90
18335;DHT22;9293;49.524;10.964;2023-12-14T02:34:00;5.90;99.90
18335;DHT22;9293;49.524;10.964;2023-12-14T02:36:28;6.00;99.90
18335;DHT22;9293;49.524;10.964;2023-12-14T02:38:57;6.00;99.90
18335;DHT22;9293;49.524;10.964;2023-12-14T02:41:25;6.00;99.90
18335;DHT22;9293;49.524;10.964;2023-12-14T02:43:53;6.00;99.90
18335;DHT22;9293;49.524;10.964;2023-12-14T02:46:22;5.90;99.90
18335;DHT22;9293;49.524;10.964;2023-12-14T02:48:50;5.90;99.90
18335;DHT22;9293;49.524;10.964;2023-12-14T02:51:18;6.00;99.90
18335;DHT22;9293;49.524;10.964;2023-12-14T02:53:46;6.00;99.90
18335;DHT22;9293;49.524;10.964;2023-12-14T02:56:15;6.00;99.90
18335;DHT22;9293;49.524;10.964;2023-12-14T02:58:43;6.00;99.90
18335;DHT22;9293;49.524;10.964;2023-12-14T03:01:11;6.00;99.90
18335;DHT22;9293;49.524;10.964;2023-12-14T03:03:39;6.00;99.90
18335;DHT22;9293;49.524;10.964;2023-12-14T03:06:08;6.10;99.90
18335;DHT22;9293;49.524;10.964;2023-12-14T03:08:36;6.00;99.90
18335;DHT22;9293;49.524;10.964;2023-12-14T03:11:04;6.00;99.90
18335;DHT22;9293;49.524;10.964;2023-12-14T03:13:33;6.00;99.90
18335;DHT22;9293;49.524;10.964;2023-12-14T03:16:01;6.00;99.90
18335;DHT22;9293;49.524;10.964;2023-12-14T03:18:29;6.00;99.90
18335;DHT22;9293;49.524;10.964;2023-12-14T03:20:58;6.00;99.90
18335;DHT22;9293;49.524;10.964;2023-12-14T03:23:26;6.10;99.90
18335;DHT22;9293;49.524;10.964;2023-12-14T03:25:54;6.10;99.90
18335;DHT22;9293;49.524;10.964;2023-12-14T03:28:23;6.00;99.90
18335;DHT22;9293;49.524;10.964;2023-12-14T03:30:51;6.00;99.90
18335;DHT22;9293;49.524;10.964;2023-12-14T03:33:19;6.00;99.90
18335;DHT22;9293;49.524;10.964;2023-12-14T03:35:48;6.00;99.90
18335;DHT22;9293;49.524;10.964;2023-12-14T03:38:16;6.00;99.90
18335;DHT22;9293;49.524;10.964;2023-12-14T03:40:44;5.90;99.90
18335;DHT22;9293;49.524;10.964;2023-12-14T03:43:13;6.00;99.90
18335;DHT22;9293;49.524;10.964;2023-12-14T03:45:41;5.90;99.90
18335;DHT22;9293;49.524;10.964;2023-12-14T03:48:09;5.90;99.90
18335;DHT22;9293;49.524;10.964;2023-12-14T03:50:38;6.00;99.90
18335;DHT22;9293;49.524;10.964;2023-12-14T03:53:06;6.00;99.90
18335;DHT22;9293;49.524;10.964;2023-12-14T03:55:34;6.10;99.90
18335;DHT22;9293;49.524;10.964;2023-12-14T03:58:06;6.10;99.90
18335;DHT22;9293;49.524;10.964;2023-12-14T04:00:37;6.10;99.90
18335;DHT22;9293;49.524;10.964;2023-12-14T04:03:09;6.10;99.90
18335;DHT22;9293;49.524;10.964;2023-12-14T04:05:37;6.00;99.90
18335;DHT22;9293;49.524;10.964;2023-12-14T04:08:07;6.00;99.90
18335;DHT22;9293;49.524;10.964;2023-12-14T04:10:35;6.00;99.90
18335;DHT22;9293;49.524;10.964;2023-12-14T04:13:03;6.00;99.90
18335;DHT22;9293;49.524;10.964;2023-12-14T04:15:31;6.10;99.90
18335;DHT22;9293;49.524;10.964;2023-12-14T04:17:59;6.10;99.90
18335;DHT22;9293;49.524;10.964;2023-12-14T04:20:28;6.10;99.90
18335;DHT22;9293;49.524;10.964;2023-12-14T04:22:56;6.10;99.90
18335;DHT22;9293;49.524;10.964;2023-12-14T04:25:24;6.00;99.90
18335;DHT22;9293;49.524;10.964;2023-12-14T04:27:53;6.00;99.90
18335;DHT22;9293;49.524;10.964;2023-12-14T04:30:21;6.00;99.90
18335;DHT22;9293;49.524;10.964;2023-12-14T04:32:49;6.10;99.90
18335;DHT22;9293;49.524;10.964;2023-12-14T04:35:18;6.00;99.90
18335;DHT22;9293;49.524;10.964;2023-12-14T04:37:47;6.00;99.90
18335;DHT22;9293;49.524;10.964;2023-12-14T04:40:15;6.00;99.90
18335;DHT22;9293;49.524;10.964;2023-12-14T04:42:43;6.00;99.90
18335;DHT22;9293;49.524;10.964;2023-12-14T04:45:11;6.00;99.90
18335;DHT22;9293;49.524;10.964;2023-12-14T04:47:40;6.00;99.90
18335;DHT22;9293;49.524;10.964;2023-12-14T04:50:09;5.90;99.90
18335;DHT22;9293;49.524;10.964;2023-12-14T04:52:37;5.90;99.90
18335;DHT22;9293;49.524;10.964;2023-12-14T04:55:06;5.90;99.90
18335;DHT22;9293;49.524;10.964;2023-12-14T04:57:36;5.90;99.90
18335;DHT22;9293;49.524;10.964;2023-12-14T05:00:05;5.90;99.90
18335;DHT22;9293;49.524;10.964;2023-12-14T05:02:33;5.90;99.90
18335;DHT22;9293;49.524;10.964;2023-12-14T05:05:02;5.90;99.90
18335;DHT22;9293;49.524;10.964;2023-12-14T05:07:31;6.00;99.90
18335;DHT22;9293;49.524;10.964;2023-12-14T05:09:59;5.90;99.90
18335;DHT22;9293;49.524;10.964;2023-12-14T05:12:27;5.90;99.90
18335;DHT22;9293;49.524;10.964;2023-12-14T05:14:57;5.90;99.90
18335;DHT22;9293;49.524;10.964;2023-12-14T05:17:25;5.90;99.90
18335;DHT22;9293;49.524;10.964;2023-12-14T05:19:53;5.80;99.90
18335;DHT22;9293;49.524;10.964;2023-12-14T05:22:21;5.70;99.90
18335;DHT22;9293;49.524;10.964;2023-12-14T05:24:50;5.70;99.90
18335;DHT22;9293;49.524;10.964;2023-12-14T05:27:18;5.70;99.90
18335;DHT22;9293;49.524;10.964;2023-12-14T05:29:47;5.60;99.90
18335;DHT22;9293;49.524;10.964;2023-12-14T05:32:15;5.60;99.90
18335;DHT22;9293;49.524;10.964;2023-12-14T05:34:43;5.60;99.90
18335;DHT22;9293;49.524;10.964;2023-12-14T05:37:11;5.60;99.90
18335;DHT22;9293;49.524;10.964;2023-12-14T05:39:43;5.60;99.90
18335;DHT22;9293;49.524;10.964;2023-12-14T05:42:16;5.60;99.90
18335;DHT22;9293;49.524;10.964;2023-12-14T05:44:45;5.60;99.90
18335;DHT22;9293;49.524;10.964;2023-12-14T05:47:14;5.70;99.90
18335;DHT22;9293;49.524;10.964;2023-12-14T05:49:44;5.70;99.90
18335;DHT22;9293;49.524;10.964;2023-12-14T05:52:12;5.80;99.90
18335;DHT22;9293;49.524;10.964;2023-12-14T05:54:43;5.70;99.90
18335;DHT22;9293;49.524;10.964;2023-12-14T05:57:12;5.70;99.90
18335;DHT22;9293;49.524;10.964;2023-12-14T05:59:41;5.80;99.90
18335;DHT22;9293;49.524;10.964;2023-12-14T06:02:09;5.80;99.90
18335;DHT22;9293;49.524;10.964;2023-12-14T06:04:38;5.80;99.90
18335;DHT22;9293;49.524;10.964;2023-12-14T06:07:10;5.80;99.90
18335;DHT22;9293;49.524;10.964;2023-12-14T06:09:39;5.80;99.90
18335;DHT22;9293;49.524;10.964;2023-12-14T06:12:07;5.80;99.90
18335;DHT22;9293;49.524;10.964;2023-12-14T06:14:36;5.80;99.90
18335;DHT22;9293;49.524;10.964;2023-12-14T06:17:04;5.80;99.90
18335;DHT22;9293;49.524;10.964;2023-12-14T06:19:32;5.80;99.90
18335;DHT22;9293;49.524;10.964;2023-12-14T06:22:00;5.80;99.90
18335;DHT22;9293;49.524;10.964;2023-12-14T06:24:29;5.80;99.90
18335;DHT22;9293;49.524;10.964;2023-12-14T06:26:57;5.80;99.90
18335;DHT22;9293;49.524;10.964;2023-12-14T06:29:25;5.70;99.90
18335;DHT22;9293;49.524;10.964;2023-12-14T06:31:53;5.70;99.90
18335;DHT22;9293;49.524;10.964;2023-12-14T06:34:22;5.80;99.90
18335;DHT22;9293;49.524;10.964;2023-12-14T06:36:50;5.80;99.90
18335;DHT22;9293;49.524;10.964;2023-12-14T06:39:18;5.80;99.90
18335;DHT22;9293;49.524;10.964;2023-12-14T06:41:47;5.80;99.90
18335;DHT22;9293;49.524;10.964;2023-12-14T06:44:15;5.80;99.90
18335;DHT22;9293;49.524;10.964;2023-12-14T06:46:45;5.80;99.90
18335;DHT22;9293;49.524;10.964;2023-12-14T06:49:13;5.80;99.90
18335;DHT22;9293;49.524;10.964;2023-12-14T06:51:41;5.70;99.90
18335;DHT22;9293;49.524;10.964;2023-12-14T06:54:09;5.70;99.90
18335;DHT22;9293;49.524;10.964;2023-12-14T06:56:38;5.70;99.90
18335;DHT22;9293;49.524;10.964;2023-12-14T06:59:06;5.70;99.90
18335;DHT22;9293;49.524;10.964;2023-12-14T07:01:34;5.70;99.90
18335;DHT22;9293;49.524;10.964;2023-12-14T07:04:03;5.70;99.90
18335;DHT22;9293;49.524;10.964;2023-12-14T07:06:31;5.70;99.90
18335;DHT22;9293;49.524;10.964;2023-12-14T07:09:00;5.70;99.90
18335;DHT22;9293;49.524;10.964;2023-12-14T07:11:28;5.70;99.90
18335;DHT22;9293;49.524;10.964;2023-12-14T07:13:57;5.70;99.90
18335;DHT22;9293;49.524;10.964;2023-12-14T07:16:25;5.70;99.90
18335;DHT22;9293;49.524;10.964;2023-12-14T07:18:53;5.70;99.90
18335;DHT22;9293;49.524;10.964;2023-12-14T07:21:21;5.70;99.90
18335;DHT22;9293;49.524;10.964;2023-12-14T07:23:52;5.60;99.90
18335;DHT22;9293;49.524;10.964;2023-12-14T07:26:23;5.60;99.90
18335;DHT22;9293;49.524;10.964;2023-12-14T07:28:54;5.60;99.90
18335;DHT22;9293;49.524;10.964;2023-12-14T07:31:22;5.70;99.90
18335;DHT22;9293;49.524;10.964;2023-12-14T07:33:50;5.70;99.90
18335;DHT22;9293;49.524;10.964;2023-12-14T07:36:19;5.70;99.90
18335;DHT22;9293;49.524;10.964;2023-12-14T07:38:47;5.70;99.90
18335;DHT22;9293;49.524;10.964;2023-12-14T07:41:18;5.70;99.90
18335;DHT22;9293;49.524;10.964;2023-12-14T07:43:47;5.70;99.90
18335;DHT22;9293;49.524;10.964;2023-12-14T07:46:15;5.70;99.90
18335;DHT22;9293;49.524;10.964;2023-12-14T07:48:43;5.70;99.90
18335;DHT22;9293;49.524;10.964;2023-12-14T07:51:12;5.80;99.90
18335;DHT22;9293;49.524;10.964;2023-12-14T07:53:40;5.80;99.90
18335;DHT22;9293;49.524;10.964;2023-12-14T07:56:10;5.80;99.90
18335;DHT22;9293;49.524;10.964;2023-12-14T07:58:39;5.80;99.90
18335;DHT22;9293;49.524;10.964;2023-12-14T08:01:07;5.80;99.90
18335;DHT22;9293;49.524;10.964;2023-12-14T08:03:35;5.80;99.90
18335;DHT22;9293;49.524;10.964;2023-12-14T08:06:04;5.90;99.90
18335;DHT22;9293;49.524;10.964;2023-12-14T08:08:33;6.00;99.90
18335;DHT22;9293;49.524;10.964;2023-12-14T08:11:01;6.10;99.90
18335;DHT22;9293;49.524;10.964;2023-12-14T08:13:30;6.10;99.90
18335;DHT22;9293;49.524;10.964;2023-12-14T08:15:58;6.20;99.90
18335;DHT22;9293;49.524;10.964;2023-12-14T08:18:26;6.20;99.90
18335;DHT22;9293;49.524;10.964;2023-12-14T08:20:55;6.20;99.90
18335;DHT22;9293;49.524;10.964;2023-12-14T08:23:24;6.30;99.90
18335;DHT22;9293;49.524;10.964;2023-12-14T08:25:55;6.20;99.90
18335;DHT22;9293;49.524;10.964;2023-12-14T08:28:25;6.30;99.90
18335;DHT22;9293;49.524;10.964;2023-12-14T08:30:53;6.30;99.90
18335;DHT22;9293;49.524;10.964;2023-12-14T08:33:22;6.30;99.90
18335;DHT22;9293;49.524;10.964;2023-12-14T08:35:51;6.30;99.90
18335;DHT22;9293;49.524;10.964;2023-12-14T08:38:20;6.40;99.90
18335;DHT22;9293;49.524;10.964;2023-12-14T08:40:48;6.40;99.90
18335;DHT22;9293;49.524;10.964;2023-12-14T08:43:17;6.40;99.90
18335;DHT22;9293;49.524;10.964;2023-12-14T08:45:45;6.40;99.90
18335;DHT22;9293;49.524;10.964;2023-12-14T08:48:13;6.40;99.90
18335;DHT22;9293;49.524;10.964;2023-12-14T08:50:42;6.50;99.90
18335;DHT22;9293;49.524;10.964;2023-12-14T08:53:10;6.50;99.90
18335;DHT22;9293;49.524;10.964;2023-12-14T08:55:39;6.60;99.90
18335;DHT22;9293;49.524;10.964;2023-12-14T08:58:07;6.60;99.90
18335;DHT22;9293;49.524;10.964;2023-12-14T09:00:36;6.70;99.90
18335;DHT22;9293;49.524;10.964;2023-12-14T09:03:15;6.80;99.90
18335;DHT22;9293;49.524;10.964;2023-12-14T09:05:43;6.80;99.90
18335;DHT22;9293;49.524;10.964;2023-12-14T09:08:13;6.80;99.90
18335;DHT22;9293;49.524;10.964;2023-12-14T09:10:41;6.80;99.90
18335;DHT22;9293;49.524;10.964;2023-12-14T09:13:10;7.00;99.90
18335;DHT22;9293;49.524;10.964;2023-12-14T09:15:38;7.10;99.90
18335;DHT22;9293;49.524;10.964;2023-12-14T09:18:06;7.20;99.90
18335;DHT22;9293;49.524;10.964;2023-12-14T09:20:35;7.20;99.90
18335;DHT22;9293;49.524;10.964;2023-12-14T09:23:05;7.30;99.90
18335;DHT22;9293;49.524;10.964;2023-12-14T09:25:33;7.30;99.90
18335;DHT22;9293;49.524;10.964;2023-12-14T09:28:02;7.30;99.90
18335;DHT22;9293;49.524;10.964;2023-12-14T09:30:30;7.40;99.90
18335;DHT22;9293;49.524;10.964;2023-12-14T09:32:59;7.40;99.90
18335;DHT22;9293;49.524;10.964;2023-12-14T09:35:27;7.50;99.90
18335;DHT22;9293;49.524;10.964;2023-12-14T09:37:56;7.50;99.90
18335;DHT22;9293;49.524;10.964;2023-12-14T09:40:24;7.60;99.90
18335;DHT22;9293;49.524;10.964;2023-12-14T09:42:52;7.60;99.90
18335;DHT22;9293;49.524;10.964;2023-12-14T09:45:24;7.60;99.90
18335;DHT22;9293;49.524;10.964;2023-12-14T09:47:57;7.60;99.90
18335;DHT22;9293;49.524;10.964;2023-12-14T09:50:26;7.70;99.90
18335;DHT22;9293;49.524;10.964;2023-12-14T09:52:54;7.60;99.90
18335;DHT22;9293;49.524;10.964;2023-12-14T09:55:23;7.70;99.90
18335;DHT22;9293;49.524;10.964;2023-12-14T09:57:51;7.70;99.90
18335;DHT22;9293;49.524;10.964;2023-12-14T10:00:36;7.70;99.90
18335;DHT22;9293;49.524;10.964;2023-12-14T10:03:23;7.80;99.90
18335;DHT22;9293;49.524;10.964;2023-12-14T10:05:53;7.90;99.90
18335;DHT22;9293;49.524;10.964;2023-12-14T10:08:22;8.00;99.90
18335;DHT22;9293;49.524;10.964;2023-12-14T10:10:53;8.10;99.90
18335;DHT22;9293;49.524;10.964;2023-12-14T10:13:41;8.20;99.90
18335;DHT22;9293;49.524;10.964;2023-12-14T10:16:10;8.30;99.90
18335;DHT22;9293;49.524;10.964;2023-12-14T10:18:38;8.40;99.90
18335;DHT22;9293;49.524;10.964;2023-12-14T10:21:08;8.40;99.90
18335;DHT22;9293;49.524;10.964;2023-12-14T10:23:36;8.40;99.90
18335;DHT22;9293;49.524;10.964;2023-12-14T10:26:05;8.40;99.90
18335;DHT22;9293;49.524;10.964;2023-12-14T10:28:33;8.30;99.90
18335;DHT22;9293;49.524;10.964;2023-12-14T10:31:02;8.30;99.90
18335;DHT22;9293;49.524;10.964;2023-12-14T10:33:32;8.30;99.90
18335;DHT22;9293;49.524;10.964;2023-12-14T10:36:01;8.20;99.90
18335;DHT22;9293;49.524;10.964;2023-12-14T10:38:31;8.10;99.90
18335;DHT22;9293;49.524;10.964;2023-12-14T10:41:00;8.10;99.90
18335;DHT22;9293;49.524;10.964;2023-12-14T10:43:29;8.10;99.90
18335;DHT22;9293;49.524;10.964;2023-12-14T10:46:15;8.10;99.90
18335;DHT22;9293;49.524;10.964;2023-12-14T10:48:45;8.10;99.90
18335;DHT22;9293;49.524;10.964;2023-12-14T10:51:15;8.10;99.90
18335;DHT22;9293;49.524;10.964;2023-12-14T10:53:46;8.10;99.90
18335;DHT22;9293;49.524;10.964;2023-12-14T10:56:17;8.10;99.90
18335;DHT22;9293;49.524;10.964;2023-12-14T10:58:50;8.10;99.90
18335;DHT22;9293;49.524;10.964;2023-12-14T11:01:21;8.10;99.90
18335;DHT22;9293;49.524;10.964;2023-12-14T11:03:55;8.10;99.90
18335;DHT22;9293;49.524;10.964;2023-12-14T11:08:54;8.20;99.90
18335;DHT22;9293;49.524;10.964;2023-12-14T11:11:28;8.20;99.90
18335;DHT22;9293;49.524;10.964;2023-12-14T11:13:56;8.20;99.90
18335;DHT22;9293;49.524;10.964;2023-12-14T11:16:26;8.20;99.90
18335;DHT22;9293;49.524;10.964;2023-12-14T11:24:25;8.50;99.90
18335;DHT22;9293;49.524;10.964;2023-12-14T11:26:54;8.50;99.90
18335;DHT22;9293;49.524;10.964;2023-12-14T11:29:22;8.50;99.90
18335;DHT22;9293;49.524;10.964;2023-12-14T11:31:51;8.50;99.90
18335;DHT22;9293;49.524;10.964;2023-12-14T11:34:24;8.60;99.90
18335;DHT22;9293;49.524;10.964;2023-12-14T11:36:53;8.60;99.90
18335;DHT22;9293;49.524;10.964;2023-12-14T11:39:21;8.50;99.90
18335;DHT22;9293;49.524;10.964;2023-12-14T11:42:04;8.60;99.90
18335;DHT22;9293;49.524;10.964;2023-12-14T11:44:32;8.50;99.90
18335;DHT22;9293;49.524;10.964;2023-12-14T11:47:01;8.50;99.90
18335;DHT22;9293;49.524;10.964;2023-12-14T11:49:30;8.40;99.90
18335;DHT22;9293;49.524;10.964;2023-12-14T11:52:02;8.40;99.90
18335;DHT22;9293;49.524;10.964;2023-12-14T11:54:32;8.40;99.90
18335;DHT22;9293;49.524;10.964;2023-12-14T11:57:03;8.40;99.90
18335;DHT22;9293;49.524;10.964;2023-12-14T11:59:32;8.40;99.90
18335;DHT22;9293;49.524;10.964;2023-12-14T12:02:01;8.50;99.90
18335;DHT22;9293;49.524;10.964;2023-12-14T12:04:32;8.50;99.90
18335;DHT22;9293;49.524;10.964;2023-12-14T12:07:02;8.50;99.90
18335;DHT22;9293;49.524;10.964;2023-12-14T12:12:15;8.40;99.90
18335;DHT22;9293;49.524;10.964;2023-12-14T12:14:43;8.50;99.90
18335;DHT22;9293;49.524;10.964;2023-12-14T12:17:11;8.40;99.90
18335;DHT22;9293;49.524;10.964;2023-12-14T12:19:42;8.40;99.90
18335;DHT22;9293;49.524;10.964;2023-12-14T12:22:13;8.30;99.90
18335;DHT22;9293;49.524;10.964;2023-12-14T12:24:51;8.30;99.90
18335;DHT22;9293;49.524;10.964;2023-12-14T12:27:34;8.30;99.90
18335;DHT22;9293;49.524;10.964;2023-12-14T12:30:03;8.20;99.90
18335;DHT22;9293;49.524;10.964;2023-12-14T12:32:31;8.30;99.90
18335;DHT22;9293;49.524;10.964;2023-12-14T12:35:00;8.20;99.90
18335;DHT22;9293;49.524;10.964;2023-12-14T12:37:28;8.20;99.90
18335;DHT22;9293;49.524;10.964;2023-12-14T12:39:56;8.10;99.90
18335;DHT22;9293;49.524;10.964;2023-12-14T12:42:27;8.10;99.90
18335;DHT22;9293;49.524;10.964;2023-12-14T12:44:57;8.00;99.90
18335;DHT22;9293;49.524;10.964;2023-12-14T12:47:26;7.90;99.90
18335;DHT22;9293;49.524;10.964;2023-12-14T12:49:55;7.90;99.90
18335;DHT22;9293;49.524;10.964;2023-12-14T12:52:23;7.90;99.90
18335;DHT22;9293;49.524;10.964;2023-12-14T12:54:51;7.90;99.90
18335;DHT22;9293;49.524;10.964;2023-12-14T12:57:20;7.80;99.90
18335;DHT22;9293;49.524;10.964;2023-12-14T12:59:48;7.80;99.90
18335;DHT22;9293;49.524;10.964;2023-12-14T13:02:18;7.80;99.90
18335;DHT22;9293;49.524;10.964;2023-12-14T13:04:47;7.80;99.90
18335;DHT22;9293;49.524;10.964;2023-12-14T13:07:15;7.80;99.90
18335;DHT22;9293;49.524;10.964;2023-12-14T13:09:45;7.80;99.90
18335;DHT22;9293;49.524;10.964;2023-12-14T13:12:14;7.70;99.90
18335;DHT22;9293;49.524;10.964;2023-12-14T13:14:42;7.70;99.90
18335;DHT22;9293;49.524;10.964;2023-12-14T13:17:10;7.70;99.90
18335;DHT22;9293;49.524;10.964;2023-12-14T13:19:39;7.70;99.90
18335;DHT22;9293;49.524;10.964;2023-12-14T13:22:07;7.70;99.90
18335;DHT22;9293;49.524;10.964;2023-12-14T13:24:36;7.70;99.90
18335;DHT22;9293;49.524;10.964;2023-12-14T13:27:04;7.70;99.90
18335;DHT22;9293;49.524;10.964;2023-12-14T13:29:33;7.70;99.90
18335;DHT22;9293;49.524;10.964;2023-12-14T13:32:03;7.60;99.90
18335;DHT22;9293;49.524;10.964;2023-12-14T13:34:31;7.60;99.90
18335;DHT22;9293;49.524;10.964;2023-12-14T13:37:01;7.50;99.90
18335;DHT22;9293;49.524;10.964;2023-12-14T13:39:30;7.50;99.90
18335;DHT22;9293;49.524;10.964;2023-12-14T13:41:58;7.40;99.90
18335;DHT22;9293;49.524;10.964;2023-12-14T13:44:26;7.40;99.90
18335;DHT22;9293;49.524;10.964;2023-12-14T13:46:55;7.40;99.90
18335;DHT22;9293;49.524;10.964;2023-12-14T13:49:23;7.40;99.90
18335;DHT22;9293;49.524;10.964;2023-12-14T13:51:52;7.40;99.90
18335;DHT22;9293;49.524;10.964;2023-12-14T13:54:20;7.30;99.90
18335;DHT22;9293;49.524;10.964;2023-12-14T13:56:48;7.30;99.90
18335;DHT22;9293;49.524;10.964;2023-12-14T13:59:17;7.30;99.90
18335;DHT22;9293;49.524;10.964;2023-12-14T14:01:45;7.30;99.90
18335;DHT22;9293;49.524;10.964;2023-12-14T14:04:13;7.30;99.90
18335;DHT22;9293;49.524;10.964;2023-12-14T14:06:42;7.30;99.90
18335;DHT22;9293;49.524;10.964;2023-12-14T14:09:11;7.30;99.90
18335;DHT22;9293;49.524;10.964;2023-12-14T14:11:40;7.30;99.90
18335;DHT22;9293;49.524;10.964;2023-12-14T14:14:13;7.30;99.90
18335;DHT22;9293;49.524;10.964;2023-12-14T14:16:43;7.30;99.90
18335;DHT22;9293;49.524;10.964;2023-12-14T14:19:11;7.30;99.90
18335;DHT22;9293;49.524;10.964;2023-12-14T14:21:43;7.20;99.90
18335;DHT22;9293;49.524;10.964;2023-12-14T14:24:11;7.20;99.90
18335;DHT22;9293;49.524;10.964;2023-12-14T14:26:40;7.20;99.90
18335;DHT22;9293;49.524;10.964;2023-12-14T14:29:08;7.20;99.90
18335;DHT22;9293;49.524;10.964;2023-12-14T14:31:39;7.20;99.90
18335;DHT22;9293;49.524;10.964;2023-12-14T14:34:07;7.30;99.90
18335;DHT22;9293;49.524;10.964;2023-12-14T14:36:36;7.20;99.90
18335;DHT22;9293;49.524;10.964;2023-12-14T14:39:04;7.20;99.90
18335;DHT22;9293;49.524;10.964;2023-12-14T14:41:33;7.20;99.90
18335;DHT22;9293;49.524;10.964;2023-12-14T14:44:01;7.20;99.90
18335;DHT22;9293;49.524;10.964;2023-12-14T14:46:30;7.20;99.90
18335;DHT22;9293;49.524;10.964;2023-12-14T14:48:58;7.20;99.90
18335;DHT22;9293;49.524;10.964;2023-12-14T14:51:29;7.20;99.90
18335;DHT22;9293;49.524;10.964;2023-12-14T14:53:58;7.20;99.90
18335;DHT22;9293;49.524;10.964;2023-12-14T14:56:26;7.20;99.90
18335;DHT22;9293;49.524;10.964;2023-12-14T14:58:55;7.20;99.90
18335;DHT22;9293;49.524;10.964;2023-12-14T15:01:24;7.10;99.90
18335;DHT22;9293;49.524;10.964;2023-12-14T15:03:53;7.10;99.90
18335;DHT22;9293;49.524;10.964;2023-12-14T15:06:21;7.10;99.90
18335;DHT22;9293;49.524;10.964;2023-12-14T15:08:51;7.10;99.90
18335;DHT22;9293;49.524;10.964;2023-12-14T15:11:19;7.10;99.90
18335;DHT22;9293;49.524;10.964;2023-12-14T15:13:47;7.00;99.90
18335;DHT22;9293;49.524;10.964;2023-12-14T15:16:16;7.00;99.90
18335;DHT22;9293;49.524;10.964;2023-12-14T15:18:46;7.00;99.90
18335;DHT22;9293;49.524;10.964;2023-12-14T15:21:15;7.00;99.90
18335;DHT22;9293;49.524;10.964;2023-12-14T15:23:44;7.00;99.90
18335;DHT22;9293;49.524;10.964;2023-12-14T15:26:17;7.00;99.90
18335;DHT22;9293;49.524;10.964;2023-12-14T15:28:45;7.00;99.90
18335;DHT22;9293;49.524;10.964;2023-12-14T15:31:14;7.00;99.90
18335;DHT22;9293;49.524;10.964;2023-12-14T15:33:42;7.00;99.90
18335;DHT22;9293;49.524;10.964;2023-12-14T15:36:11;7.00;99.90
18335;DHT22;9293;49.524;10.964;2023-12-14T15:38:39;7.00;99.90
18335;DHT22;9293;49.524;10.964;2023-12-14T15:41:09;7.00;99.90
18335;DHT22;9293;49.524;10.964;2023-12-14T15:43:37;7.00;99.90
18335;DHT22;9293;49.524;10.964;2023-12-14T15:46:09;6.90;99.90
18335;DHT22;9293;49.524;10.964;2023-12-14T15:48:41;6.90;99.90
18335;DHT22;9293;49.524;10.964;2023-12-14T15:51:10;7.00;99.90
18335;DHT22;9293;49.524;10.964;2023-12-14T15:53:38;7.00;99.90
18335;DHT22;9293;49.524;10.964;2023-12-14T15:56:07;7.00;99.90
18335;DHT22;9293;49.524;10.964;2023-12-14T15:58:36;7.00;99.90
18335;DHT22;9293;49.524;10.964;2023-12-14T16:01:04;6.90;99.90
18335;DHT22;9293;49.524;10.964;2023-12-14T16:03:33;6.90;99.90
18335;DHT22;9293;49.524;10.964;2023-12-14T16:06:02;7.00;99.90